Accueil
METAR-TAF:

METAR-TAF

Aéroports :

Aérodrome de Samedan-Engadin

Saint-Moritz, Suisse

latitude: 46-32-03N, longitude: 9-53-03E, altitude: 1707 m

Observation

Le bulletin a été fait il y a 29 minutes, à 22:20 UTC
Vent 3 kt de sud
Température -2°C
Humidité 80%
Pression 1030 hPa
Visibilité 10 km ou plus
pas de nuages en-dessous de 1500 mètres et pas de cumulonimbus.

METAR: LSZS 062220Z AUTO 19003KT CAVOK M02/M05 Q1030

Heure: 00:49 (22:49 UTC)

Prévision

Le bulletin a été fait il y a 8 heures et 24 minutes, à 14:25 UTC
Prévision valable du 06 à 15 UTC au 06 à 24 UTC
Vent 10 kt de sud-ouest
Visibilité 10 km ou plus
pas de nuages en-dessous de 1500 mètres et pas de cumulonimbus.
Evoluant progressivement
du 06 à 17 UTC au 06 à 19 UTC
Vent 3 kt de direction variable

TAF: LSZS 061425Z 0615/0624 22010KT CAVOK TX09/0615Z BECMG 0617/0619 VRB03KT

Observations et prévisions météorologiques de plus de 4000 aéroports (messages METAR et TAF).

Les stations disponibles sont représentées par des disques jaunes et rouges sur la carte.

Passer la souris dessus pour voir le nom de la station.

Cliquer dessus pour voir les observations et prévisions météorologiques.

Pour changer de carte: cliquez sur les boutons verts avec une croix noire pour zoomer, sur le bouton vert avec un tiret pour effectuer un zoom arrière, ou sur les flèches vertes pour les cartes adjacentes.


METAR-TAF: